Pleasant Gap, Pennsylvania
Current Conditions -  °F | °C
As of 10:53 AM on Friday 19 Dec 2014 (Local Time) from KUNV Reporting Station
Overcast Overcast  
Wind Chill: 20°   Ceiling: 2500
Heat Index: 30°   Visibility: 10mi
Dew Point: 21°   Wind: 14mph
Humidity: 69%   Direction: 310°NW
Pressure: 30.13"   Gusts: NA
Location:  40.9455°N, 77.7398°W
Report Text: KUNV 191553Z 31012KT 10SM OVC025 M01/M06 A3013
Loading
Personal Weather Stations






























Interactive Weather Map New forecast layout! Learn more

10-Day Weather Forecast

Advertisements
Track Severe Weather on mobile